Time;durP1;ratioP1;P1;durP2;ratioP2;P2;SDS_P1;SDS_P2;PMS_P1;PMS_P2;Temp;Humidity;BMP_temperature;BMP_pressure;BME280_temperature;BME280_humidity;BME280_pressure;Samples;Min_cycle;Max_cycle;Signal;HPM_P1;HPM_P2
2022/11/21 00:01:44;;;;;;;28.08;26.10;;;0.80;99.90;;;;;;4234723;28;20410;-83
2022/11/21 00:04:04;;;;;;;30.80;28.73;;;0.80;99.90;;;;;;4248450;28;20070;-83
2022/11/21 00:06:25;;;;;;;28.40;26.30;;;0.70;99.90;;;;;;4250237;28;20123;-83
2022/11/21 00:08:46;;;;;;;24.77;23.00;;;0.70;99.90;;;;;;4246839;28;20080;-83
2022/11/21 00:11:06;;;;;;;23.13;21.67;;;0.70;99.90;;;;;;4248313;28;20050;-83
2022/11/21 00:13:26;;;;;;;23.40;21.88;;;0.70;99.90;;;;;;4250127;28;20119;-83
2022/11/21 00:15:47;;;;;;;18.20;16.67;;;0.70;99.90;;;;;;4238056;28;20146;-83
2022/11/21 00:18:07;;;;;;;17.30;16.23;;;0.70;99.90;;;;;;4246731;28;20050;-83
2022/11/21 00:20:26;;;;;;;15.23;14.57;;;0.70;99.90;;;;;;4251497;28;20369;-83
2022/11/21 00:22:47;;;;;;;13.35;12.85;;;0.80;99.90;;;;;;4233905;28;20170;-83
2022/11/21 00:25:07;;;;;;;14.18;13.68;;;0.80;99.90;;;;;;4248119;28;20108;-83
2022/11/21 00:27:27;;;;;;;26.63;19.58;;;0.80;99.90;;;;;;4248722;28;20415;-83
2022/11/21 00:29:47;;;;;;;16.60;15.40;;;0.80;99.90;;;;;;4239163;28;20066;-83
2022/11/21 00:32:08;;;;;;;12.18;11.77;;;0.90;99.90;;;;;;4245973;28;20227;-83
2022/11/21 00:34:28;;;;;;;13.23;12.70;;;0.90;99.90;;;;;;4234681;28;20076;-83
2022/11/21 00:36:49;;;;;;;12.23;11.82;;;0.90;99.90;;;;;;4246956;28;20077;-83
2022/11/21 00:39:09;;;;;;;11.00;10.70;;;0.90;99.90;;;;;;4236214;28;20081;-83
2022/11/21 00:41:28;;;;;;;12.02;11.48;;;0.90;99.90;;;;;;4245681;28;20061;-83
2022/11/21 00:43:48;;;;;;;12.10;11.55;;;0.70;99.90;;;;;;4250388;28;20042;-83
2022/11/21 00:46:08;;;;;;;13.98;12.98;;;0.80;99.90;;;;;;4246076;28;20070;-83
2022/11/21 00:48:29;;;;;;;13.30;12.38;;;0.80;99.90;;;;;;4246863;28;20047;-83
2022/11/21 00:50:49;;;;;;;11.32;10.77;;;0.90;99.90;;;;;;4246910;28;20055;-83
2022/11/21 00:53:10;;;;;;;12.20;11.07;;;0.90;99.90;;;;;;4235439;28;20047;-83
2022/11/21 00:55:29;;;;;;;12.48;11.70;;;0.80;99.90;;;;;;4241416;28;20055;-83
2022/11/21 00:57:49;;;;;;;14.35;13.02;;;0.80;99.90;;;;;;4233124;28;20278;-83
2022/11/21 01:00:10;;;;;;;12.95;12.02;;;0.80;99.90;;;;;;4233657;28;20051;-83
2022/11/21 01:02:31;;;;;;;14.32;13.15;;;0.80;99.90;;;;;;4246258;28;20270;-83
2022/11/21 01:04:51;;;;;;;17.05;16.23;;;0.70;99.90;;;;;;4234323;28;20070;-83
2022/11/21 01:07:13;;;;;;;17.40;16.42;;;0.60;99.90;;;;;;4244874;28;20043;-83
2022/11/21 01:09:33;;;;;;;20.73;19.47;;;0.50;99.90;;;;;;4246730;28;20082;-83
2022/11/21 01:11:53;;;;;;;23.27;17.73;;;0.50;99.90;;;;;;4247164;28;20287;-83
2022/11/21 01:14:13;;;;;;;40.80;17.30;;;0.50;99.90;;;;;;4248985;28;20042;-83
2022/11/21 01:16:33;;;;;;;148.35;18.77;;;0.30;99.90;;;;;;4247543;28;20058;-83
2022/11/21 01:18:54;;;;;;;116.63;17.23;;;0.20;99.90;;;;;;4247441;28;20046;-83
2022/11/21 01:21:16;;;;;;;21.80;20.20;;;0.10;99.90;;;;;;4221107;28;20058;-83
2022/11/21 01:23:36;;;;;;;127.38;24.90;;;0.10;99.90;;;;;;4247982;28;20046;-83
2022/11/21 01:26:09;;;;;;;151.60;27.95;;;0.20;99.90;;;;;;4246513;28;20096;-83
2022/11/21 01:28:29;;;;;;;87.57;26.20;;;0.00;99.90;;;;;;4245185;28;20078;-83
2022/11/21 01:30:49;;;;;;;36.42;25.52;;;0.10;99.90;;;;;;4248029;28;20115;-83
2022/11/21 01:33:09;;;;;;;215.07;31.95;;;0.20;99.90;;;;;;4229420;28;20078;-83
2022/11/21 01:35:28;;;;;;;230.27;32.05;;;0.10;99.90;;;;;;4238078;28;20093;-83
2022/11/21 01:37:48;;;;;;;83.45;28.98;;;0.00;99.90;;;;;;4247345;28;20286;-83
2022/11/21 01:40:09;;;;;;;83.28;28.42;;;0.10;99.90;;;;;;4244512;28;20059;-83
2022/11/21 01:43:02;;;;;;;29.38;26.27;;;0.10;99.90;;;;;;4247355;28;20038;-83
2022/11/21 01:45:47;;;;;;;19.55;18.38;;;0.20;99.90;;;;;;4250522;28;20060;-83
2022/11/21 01:48:07;;;;;;;18.55;17.65;;;0.30;99.90;;;;;;4248463;28;20286;-83
2022/11/21 01:50:27;;;;;;;17.83;16.60;;;0.40;99.90;;;;;;4237938;28;20255;-83
2022/11/21 01:52:47;;;;;;;19.58;18.17;;;0.50;99.90;;;;;;4249392;28;20054;-83
2022/11/21 01:55:10;;;;;;;18.90;17.65;;;0.40;99.90;;;;;;4248999;28;20361;-83
2022/11/21 01:57:41;;;;;;;16.10;15.25;;;0.50;99.90;;;;;;4250056;28;20066;-83
2022/11/21 02:00:05;;;;;;;14.63;13.90;;;0.70;99.90;;;;;;4252349;28;20041;-83
2022/11/21 02:02:31;;;;;;;14.90;14.13;;;0.90;99.90;;;;;;4249335;28;20410;-83
2022/11/21 02:04:52;;;;;;;12.98;12.35;;;0.90;99.90;;;;;;4241741;28;20076;-83
2022/11/21 02:07:15;;;;;;;22.00;19.88;;;0.80;99.90;;;;;;4252560;28;20050;-83
2022/11/21 02:09:39;;;;;;;27.70;23.42;;;0.70;99.90;;;;;;4253250;28;20455;-83
2022/11/21 02:12:12;;;;;;;24.48;22.30;;;0.60;99.90;;;;;;4248015;28;20238;-83
2022/11/21 02:14:33;;;;;;;23.20;21.55;;;0.50;99.90;;;;;;4250964;28;20050;-83
2022/11/21 02:16:59;;;;;;;24.52;22.92;;;0.50;99.90;;;;;;4250182;28;20053;-83
2022/11/21 02:19:27;;;;;;;22.67;21.08;;;0.40;99.90;;;;;;4249899;28;20103;-83
2022/11/21 02:21:58;;;;;;;22.73;21.30;;;0.50;99.90;;;;;;4249011;28;20038;-83
2022/11/21 02:24:42;;;;;;;24.95;22.90;;;0.40;99.90;;;;;;4248983;28;20039;-83
2022/11/21 02:27:02;;;;;;;23.63;21.52;;;0.50;99.90;;;;;;4250122;27;20042;-83
2022/11/21 02:29:22;;;;;;;21.80;20.05;;;0.50;99.90;;;;;;4251599;28;20053;-83
2022/11/21 02:31:42;;;;;;;21.75;20.23;;;0.50;99.90;;;;;;4247853;28;20080;-83
2022/11/21 02:34:02;;;;;;;24.58;23.00;;;0.60;99.90;;;;;;4249330;28;20129;-83
2022/11/21 02:36:44;;;;;;;25.95;23.92;;;0.50;99.90;;;;;;4244332;28;20111;-83
2022/11/21 02:39:20;;;;;;;19.30;18.25;;;0.40;99.90;;;;;;4251722;28;20090;-83
2022/11/21 02:41:47;;;;;;;19.92;18.65;;;0.40;99.90;;;;;;4245489;28;20372;-83
2022/11/21 02:44:19;;;;;;;19.98;18.75;;;0.40;99.90;;;;;;4236783;28;20117;-83
2022/11/21 02:46:46;;;;;;;18.63;17.83;;;0.40;99.90;;;;;;4237022;28;20273;-83
2022/11/21 02:49:08;;;;;;;19.45;18.00;;;0.50;99.90;;;;;;4246351;28;20092;-83
2022/11/21 02:51:28;;;;;;;17.50;16.42;;;0.50;99.90;;;;;;4249481;28;20096;-83
2022/11/21 02:53:47;;;;;;;15.38;14.68;;;0.60;99.90;;;;;;4232864;28;20089;-83
2022/11/21 02:56:08;;;;;;;16.48;15.38;;;0.60;99.90;;;;;;4247441;28;20070;-83
2022/11/21 02:58:28;;;;;;;16.95;16.23;;;0.50;99.90;;;;;;4236368;28;20274;-83
2022/11/21 03:00:48;;;;;;;15.65;14.80;;;0.50;99.90;;;;;;4255062;28;20241;-83
2022/11/21 03:03:08;;;;;;;15.75;14.93;;;0.40;99.90;;;;;;4252147;28;20039;-83
2022/11/21 03:05:29;;;;;;;15.38;14.25;;;0.60;99.90;;;;;;4249504;28;20065;-83
2022/11/21 03:07:49;;;;;;;15.23;14.52;;;0.60;99.90;;;;;;4232456;28;20369;-83
2022/11/21 03:10:10;;;;;;;13.75;13.18;;;0.50;99.90;;;;;;4252020;28;20080;-83
2022/11/21 03:12:30;;;;;;;13.20;12.55;;;0.50;99.90;;;;;;4234073;28;20046;-83
2022/11/21 03:14:50;;;;;;;15.07;14.00;;;0.50;99.90;;;;;;4251283;28;20084;-83
2022/11/21 03:17:10;;;;;;;17.60;16.80;;;0.40;99.90;;;;;;4247373;28;20065;-83
2022/11/21 03:19:30;;;;;;;15.77;15.23;;;0.40;99.90;;;;;;4249339;28;20058;-83
2022/11/21 03:21:50;;;;;;;19.20;18.30;;;0.40;99.90;;;;;;4249656;28;20372;-83
2022/11/21 03:24:09;;;;;;;17.60;16.90;;;0.40;99.90;;;;;;4247195;28;20099;-83
2022/11/21 03:26:29;;;;;;;20.25;19.25;;;0.40;99.90;;;;;;4248315;28;20051;-83
2022/11/21 03:28:49;;;;;;;19.92;18.13;;;0.20;99.90;;;;;;4233458;28;20061;-83
2022/11/21 03:31:09;;;;;;;77.10;23.60;;;0.10;99.90;;;;;;4235914;28;20059;-83
2022/11/21 03:33:29;;;;;;;138.55;32.63;;;0.00;99.90;;;;;;4248697;28;20035;-83
2022/11/21 03:35:48;;;;;;;271.15;39.33;;;-0.10;99.90;;;;;;4246220;28;20054;-83
2022/11/21 03:38:08;;;;;;;139.73;36.55;;;-0.20;99.90;;;;;;4248443;28;20218;-83
2022/11/21 03:40:28;;;;;;;35.53;33.47;;;-0.30;99.90;;;;;;4236794;28;20120;-83
2022/11/21 03:42:47;;;;;;;84.22;35.55;;;-0.30;99.90;;;;;;4245463;28;20080;-83
2022/11/21 03:45:08;;;;;;;101.90;36.67;;;-0.30;99.90;;;;;;4249258;28;20046;-83
2022/11/21 03:47:28;;;;;;;36.10;32.30;;;-0.30;99.90;;;;;;4230948;28;20062;-83
2022/11/21 03:49:47;;;;;;;35.20;33.40;;;-0.30;99.90;;;;;;4247113;28;20050;-83
2022/11/21 03:52:08;;;;;;;32.25;29.90;;;-0.10;99.90;;;;;;4245492;28;20039;-83
2022/11/21 03:54:27;;;;;;;24.65;23.45;;;-0.10;99.90;;;;;;4235095;28;20058;-83
2022/11/21 03:56:48;;;;;;;19.75;18.92;;;0.00;99.90;;;;;;4252788;28;20103;-83
2022/11/21 03:59:07;;;;;;;14.80;14.20;;;0.00;99.90;;;;;;4251719;28;20054;-83
2022/11/21 04:01:27;;;;;;;16.42;15.52;;;-0.10;99.90;;;;;;4251374;28;20046;-83
2022/11/21 04:03:53;;;;;;;14.52;13.73;;;-0.10;99.90;;;;;;4247603;28;20042;-83
2022/11/21 04:06:16;;;;;;;12.85;12.45;;;-0.20;99.90;;;;;;4248029;28;20054;-83
2022/11/21 04:08:36;;;;;;;14.00;13.63;;;-0.10;99.90;;;;;;4249323;28;20050;-83
2022/11/21 04:10:56;;;;;;;15.02;14.25;;;0.00;99.90;;;;;;4234420;28;20354;-83
2022/11/21 04:13:16;;;;;;;14.23;13.63;;;0.10;99.90;;;;;;4230822;28;20130;-83
2022/11/21 04:15:36;;;;;;;12.38;11.98;;;0.10;99.90;;;;;;4247818;28;20265;-83
2022/11/21 04:17:56;;;;;;;13.50;13.13;;;0.10;99.90;;;;;;4234091;28;20109;-83
2022/11/21 04:20:16;;;;;;;19.13;18.15;;;0.10;99.90;;;;;;4247742;28;20061;-83
2022/11/21 04:22:35;;;;;;;19.98;18.77;;;0.10;99.90;;;;;;4248734;28;20082;-83
2022/11/21 04:24:55;;;;;;;79.07;21.77;;;0.00;99.90;;;;;;4249425;28;20133;-83
2022/11/21 04:27:15;;;;;;;29.08;26.00;;;-0.10;99.90;;;;;;4247387;27;20038;-83
2022/11/21 04:29:34;;;;;;;26.42;25.42;;;-0.20;99.90;;;;;;4249330;28;20111;-83
2022/11/21 04:31:54;;;;;;;28.63;27.02;;;-0.20;99.90;;;;;;4247233;28;20441;-83
2022/11/21 04:34:13;;;;;;;130.07;29.45;;;-0.10;99.90;;;;;;4248093;28;20042;-83
2022/11/21 04:36:33;;;;;;;77.85;27.50;;;-0.20;99.90;;;;;;4245519;28;20235;-83
2022/11/21 04:38:53;;;;;;;191.98;30.70;;;-0.30;99.90;;;;;;4247068;28;20082;-83
2022/11/21 04:41:13;;;;;;;111.20;32.50;;;-0.30;99.90;;;;;;4248589;28;20065;-83
2022/11/21 04:43:33;;;;;;;99.20;35.25;;;-0.40;99.90;;;;;;4232388;28;20243;-83
2022/11/21 04:45:52;;;;;;;277.98;42.60;;;-0.40;99.90;;;;;;4247834;28;20115;-83
2022/11/21 04:48:12;;;;;;;126.10;37.53;;;-0.40;99.90;;;;;;4223731;28;20042;-83
2022/11/21 04:50:32;;;;;;;241.63;39.13;;;-0.50;99.90;;;;;;4249850;28;20046;-83
2022/11/21 04:52:54;;;;;;;75.50;30.27;;;-0.40;99.90;;;;;;4250744;28;20066;-83
2022/11/21 04:55:14;;;;;;;172.93;33.03;;;-0.40;99.90;;;;;;4252192;28;20301;-83
2022/11/21 04:57:33;;;;;;;23.08;22.00;;;-0.40;99.90;;;;;;4251015;28;20042;-83
2022/11/21 04:59:54;;;;;;;23.38;17.75;;;-0.20;99.90;;;;;;4246828;28;20046;-83
2022/11/21 05:02:14;;;;;;;17.02;16.17;;;-0.20;99.90;;;;;;4234420;28;20050;-83
2022/11/21 05:04:34;;;;;;;14.48;13.77;;;-0.10;99.90;;;;;;4247449;28;20062;-83
2022/11/21 05:06:54;;;;;;;17.25;15.50;;;-0.10;99.90;;;;;;4246109;28;20400;-83
2022/11/21 05:09:14;;;;;;;15.55;14.73;;;-0.10;99.90;;;;;;4240113;28;20273;-83
2022/11/21 05:14:12;;;;;;;14.10;13.60;;;0.30;99.90;;;;;;4248719;28;20395;-83
2022/11/21 05:16:33;;;;;;;14.43;13.63;;;0.30;99.90;;;;;;4246699;28;20042;-83
2022/11/21 05:18:52;;;;;;;13.50;12.95;;;0.20;99.90;;;;;;4252362;28;20067;-83
2022/11/21 05:21:12;;;;;;;12.52;12.02;;;0.20;99.90;;;;;;4245609;27;20377;-83
2022/11/21 05:23:32;;;;;;;12.20;11.70;;;0.30;99.90;;;;;;4250244;28;20068;-83
2022/11/21 05:25:52;;;;;;;14.45;13.50;;;0.40;99.90;;;;;;4223779;28;20078;-83
2022/11/21 05:28:12;;;;;;;15.50;14.25;;;0.40;99.90;;;;;;4247743;28;20038;-83
2022/11/21 05:30:31;;;;;;;13.63;12.90;;;0.30;99.90;;;;;;4234600;28;20114;-83
2022/11/21 05:32:51;;;;;;;15.55;14.55;;;0.30;99.90;;;;;;4242539;28;20373;-83
2022/11/21 05:35:12;;;;;;;17.92;16.38;;;0.40;99.90;;;;;;4247718;28;20050;-83
2022/11/21 05:37:31;;;;;;;14.50;13.48;;;0.40;99.90;;;;;;4243119;28;20038;-83
2022/11/21 05:39:51;;;;;;;10.48;10.18;;;0.40;99.90;;;;;;4248423;28;20046;-83
2022/11/21 05:42:10;;;;;;;11.65;11.15;;;0.40;99.90;;;;;;4247441;28;20077;-83
2022/11/21 05:44:30;;;;;;;12.38;11.88;;;0.40;99.90;;;;;;4244477;28;20081;-83
2022/11/21 05:46:50;;;;;;;13.68;12.73;;;0.40;99.90;;;;;;4245315;28;20084;-83
2022/11/21 05:49:11;;;;;;;15.93;14.85;;;0.40;99.90;;;;;;4251843;28;20089;-83
2022/11/21 05:51:31;;;;;;;12.57;11.88;;;0.30;99.90;;;;;;4244910;28;20257;-83
2022/11/21 05:53:50;;;;;;;11.82;11.45;;;0.30;99.90;;;;;;4249851;28;20088;-83
2022/11/21 05:56:12;;;;;;;17.40;13.57;;;0.30;99.90;;;;;;4245078;28;20058;-83
2022/11/21 05:58:33;;;;;;;11.25;10.75;;;0.20;99.90;;;;;;4251005;28;20039;-83
2022/11/21 06:00:58;;;;;;;14.35;13.57;;;0.20;99.90;;;;;;4246768;28;20323;-83
2022/11/21 06:03:30;;;;;;;16.63;13.68;;;0.20;99.90;;;;;;4243902;28;20043;-83
2022/11/21 06:05:50;;;;;;;17.15;15.70;;;0.20;99.90;;;;;;4247265;28;20062;-83
2022/11/21 06:08:10;;;;;;;14.50;13.65;;;0.10;99.90;;;;;;4233039;28;20146;-83
2022/11/21 06:10:31;;;;;;;15.52;14.32;;;0.00;99.90;;;;;;4245664;28;20088;-83
2022/11/21 06:12:50;;;;;;;16.95;15.35;;;0.10;99.90;;;;;;4249538;28;20076;-83
2022/11/21 06:15:10;;;;;;;17.23;15.93;;;0.00;99.90;;;;;;4231566;28;20047;-83
2022/11/21 06:17:31;;;;;;;17.88;16.20;;;0.00;99.90;;;;;;4246440;28;20051;-83
2022/11/21 06:19:51;;;;;;;17.17;16.02;;;0.10;99.90;;;;;;4247878;28;20134;-83
2022/11/21 06:22:11;;;;;;;15.68;14.77;;;0.00;99.90;;;;;;4246313;28;20059;-83
2022/11/21 06:24:31;;;;;;;20.95;19.17;;;0.10;99.90;;;;;;4245693;28;20062;-85
2022/11/21 06:26:51;;;;;;;19.88;18.27;;;0.10;99.90;;;;;;4233101;28;20051;-85
2022/11/21 06:29:11;;;;;;;20.02;18.30;;;0.30;99.90;;;;;;4243461;28;20381;-85
2022/11/21 06:31:31;;;;;;;21.88;20.40;;;0.20;99.90;;;;;;4243705;28;20080;-85
2022/11/21 06:33:53;;;;;;;22.30;21.10;;;0.20;99.90;;;;;;4251218;28;20052;-85
2022/11/21 06:36:16;;;;;;;23.80;22.02;;;0.20;99.90;;;;;;4251611;28;20235;-85
2022/11/21 06:38:37;;;;;;;20.98;19.48;;;0.20;99.90;;;;;;4245190;28;20057;-85
2022/11/21 06:40:56;;;;;;;24.38;22.85;;;0.20;99.90;;;;;;4250792;28;20046;-85
2022/11/21 06:43:17;;;;;;;20.45;19.08;;;0.20;99.90;;;;;;4252091;28;20047;-85
2022/11/21 06:45:36;;;;;;;29.45;25.67;;;0.20;99.90;;;;;;4247078;28;20047;-84
2022/11/21 06:48:01;;;;;;;32.20;27.60;;;0.20;99.90;;;;;;4237470;28;20369;-84
2022/11/21 06:50:22;;;;;;;16.70;15.70;;;0.20;99.90;;;;;;4247521;28;20054;-84
2022/11/21 06:52:42;;;;;;;14.20;13.57;;;0.10;99.90;;;;;;4252499;28;20046;-84
2022/11/21 06:55:02;;;;;;;14.75;13.85;;;0.10;99.90;;;;;;4250614;28;20058;-84
2022/11/21 06:57:22;;;;;;;16.08;15.25;;;0.20;99.90;;;;;;4232432;28;20090;-84
2022/11/21 06:59:41;;;;;;;20.27;18.42;;;0.30;99.90;;;;;;4250083;28;20046;-84
2022/11/21 07:02:01;;;;;;;30.80;24.67;;;0.30;99.90;;;;;;4249258;28;20131;-84
2022/11/21 07:04:21;;;;;;;26.27;23.33;;;0.40;99.90;;;;;;4248094;28;20038;-84
2022/11/21 07:06:41;;;;;;;19.55;17.88;;;0.40;99.90;;;;;;4249404;28;20050;-84
2022/11/21 07:09:01;;;;;;;19.02;17.63;;;0.50;99.90;;;;;;4248437;28;20038;-84
2022/11/21 07:11:41;;;;;;;17.10;15.88;;;0.60;99.90;;;;;;4248029;28;20103;-84
2022/11/21 07:14:01;;;;;;;20.60;18.70;;;0.60;99.90;;;;;;4248323;28;20082;-84
2022/11/21 07:16:30;;;;;;;21.42;19.63;;;0.60;99.90;;;;;;4236317;28;20365;-84
2022/11/21 07:18:50;;;;;;;24.92;22.60;;;0.60;99.90;;;;;;4234694;28;20244;-84
2022/11/21 07:21:10;;;;;;;24.55;22.13;;;0.50;99.90;;;;;;4249313;28;20051;-84
2022/11/21 07:23:31;;;;;;;25.85;22.42;;;0.60;99.90;;;;;;4248554;28;20035;-84
2022/11/21 07:25:51;;;;;;;24.42;22.10;;;0.60;99.90;;;;;;4235286;28;20111;-84
2022/11/21 07:28:11;;;;;;;22.77;20.58;;;0.60;99.90;;;;;;4249414;28;20042;-84
2022/11/21 07:30:31;;;;;;;21.48;19.27;;;0.60;99.90;;;;;;4250211;28;20051;-84
2022/11/21 07:32:55;;;;;;;22.13;19.60;;;0.70;99.90;;;;;;4249720;28;20432;-84
2022/11/21 07:35:15;;;;;;;19.83;18.10;;;0.70;99.90;;;;;;4249165;28;20061;-84
2022/11/21 07:37:38;;;;;;;20.05;17.70;;;0.70;99.90;;;;;;4250726;28;20076;-84
2022/11/21 07:39:58;;;;;;;17.80;16.50;;;0.80;99.90;;;;;;4248900;28;20093;-84
2022/11/21 07:42:18;;;;;;;28.15;18.58;;;0.80;99.90;;;;;;4248095;28;20144;-84
2022/11/21 07:44:38;;;;;;;20.40;18.75;;;0.90;99.90;;;;;;4248733;28;20088;-84
2022/11/21 07:46:58;;;;;;;14.50;13.70;;;0.90;99.90;;;;;;4246450;28;20097;-84
2022/11/21 07:49:17;;;;;;;14.77;14.07;;;1.00;99.90;;;;;;4247757;28;20387;-84
2022/11/21 07:51:37;;;;;;;15.82;14.73;;;1.20;99.90;;;;;;4239404;28;20258;-84
2022/11/21 07:53:56;;;;;;;13.05;12.23;;;1.40;99.90;;;;;;4237736;28;20259;-84
2022/11/21 07:56:16;;;;;;;11.98;11.38;;;1.80;99.90;;;;;;4237736;28;20058;-84
2022/11/21 07:58:37;;;;;;;15.73;14.50;;;2.00;99.90;;;;;;4250073;28;20041;-84
2022/11/21 08:00:57;;;;;;;11.80;11.20;;;2.20;99.90;;;;;;4237045;28;20043;-84
2022/11/21 08:03:16;;;;;;;15.75;14.45;;;2.10;99.90;;;;;;4248147;28;20097;-84
2022/11/21 08:05:38;;;;;;;15.07;14.02;;;2.00;99.90;;;;;;4232936;28;20050;-84
2022/11/21 08:07:58;;;;;;;13.52;12.70;;;2.00;99.90;;;;;;4246932;28;20057;-84
2022/11/21 08:10:18;;;;;;;17.17;15.77;;;2.00;99.90;;;;;;4233681;28;20051;-84
2022/11/21 08:12:38;;;;;;;13.75;12.98;;;2.10;99.90;;;;;;4235246;28;20070;-85
2022/11/21 08:14:58;;;;;;;102.95;64.63;;;2.10;99.90;;;;;;4248346;28;20058;-85
2022/11/21 08:17:18;;;;;;;100.90;77.35;;;2.20;99.90;;;;;;4245404;28;20081;-85
2022/11/21 08:19:37;;;;;;;19.25;17.92;;;2.30;99.90;;;;;;4246669;28;20046;-85
2022/11/21 08:21:58;;;;;;;15.90;14.35;;;2.40;99.90;;;;;;4248750;28;20081;-85
2022/11/21 08:24:17;;;;;;;13.38;12.18;;;2.50;99.90;;;;;;4245573;28;20046;-85
2022/11/21 08:26:37;;;;;;;13.18;12.55;;;2.60;99.90;;;;;;4234197;28;20054;-85
2022/11/21 08:28:57;;;;;;;14.63;13.88;;;2.60;99.90;;;;;;4234264;28;20472;-85
2022/11/21 08:31:19;;;;;;;13.57;12.88;;;2.60;99.90;;;;;;4236149;28;20092;-85
2022/11/21 08:33:39;;;;;;;9.57;9.18;;;2.70;99.90;;;;;;4244227;28;20039;-86
2022/11/21 08:36:04;;;;;;;16.42;14.90;;;2.80;99.90;;;;;;4234804;28;20250;-86
2022/11/21 08:38:24;;;;;;;13.13;12.15;;;2.90;99.90;;;;;;4249576;28;20041;-86
2022/11/21 08:40:44;;;;;;;8.30;8.00;;;3.00;99.90;;;;;;4247421;28;20050;-86
2022/11/21 08:43:06;;;;;;;5.45;5.35;;;3.00;99.90;;;;;;4233139;28;20311;-85
2022/11/21 08:45:27;;;;;;;5.90;5.70;;;3.00;99.90;;;;;;4230445;28;20055;-86
2022/11/21 08:47:47;;;;;;;13.88;12.77;;;3.10;99.90;;;;;;4234265;28;20063;-86
2022/11/21 08:50:07;;;;;;;10.20;9.73;;;3.40;99.90;;;;;;4246886;28;20076;-86
2022/11/21 08:52:28;;;;;;;10.90;10.07;;;3.50;99.90;;;;;;4249710;28;20038;-86
2022/11/21 08:54:49;;;;;;;8.98;8.68;;;3.90;99.90;;;;;;4235009;28;20078;-86
2022/11/21 08:57:09;;;;;;;11.45;10.60;;;4.00;99.90;;;;;;4245820;28;20054;-86
2022/11/21 08:59:29;;;;;;;10.60;10.07;;;4.00;99.90;;;;;;4246370;28;20085;-86
2022/11/21 09:01:49;;;;;;;15.75;14.25;;;4.00;99.90;;;;;;4246714;28;20385;-86
2022/11/21 09:04:09;;;;;;;12.15;11.45;;;4.00;99.90;;;;;;4247041;28;20112;-86
2022/11/21 09:06:29;;;;;;;12.02;11.32;;;4.10;99.90;;;;;;4246742;28;20093;-86
2022/11/21 09:08:50;;;;;;;11.52;10.57;;;4.20;99.90;;;;;;4248894;28;20465;-86
2022/11/21 09:11:10;;;;;;;9.13;8.63;;;4.30;99.90;;;;;;4245757;28;20042;-85
2022/11/21 09:13:30;;;;;;;7.57;7.30;;;4.40;99.90;;;;;;4245352;28;20081;-86
2022/11/21 09:18:27;;;;;;;7.93;7.63;;;4.60;99.90;;;;;;4243373;28;20093;-86
2022/11/21 09:20:47;;;;;;;8.48;8.07;;;4.80;99.90;;;;;;4246887;28;20093;-86
2022/11/21 09:23:10;;;;;;;8.68;8.25;;;4.90;99.90;;;;;;4242988;28;20133;-86
2022/11/21 09:25:30;;;;;;;11.43;10.63;;;5.10;99.90;;;;;;4245547;28;20058;-86
2022/11/21 09:27:49;;;;;;;10.73;10.30;;;5.20;99.90;;;;;;4245006;28;20037;-86
2022/11/21 09:30:10;;;;;;;13.88;12.73;;;5.50;99.90;;;;;;4246871;28;20047;-86
2022/11/21 09:32:30;;;;;;;12.40;11.27;;;5.90;99.90;;;;;;4245469;28;20077;-86
2022/11/21 09:34:50;;;;;;;11.93;11.13;;;6.10;99.90;;;;;;4246757;28;20054;-86
2022/11/21 09:37:10;;;;;;;11.70;11.13;;;6.00;99.90;;;;;;4246280;28;20052;-86
2022/11/21 09:39:30;;;;;;;10.65;9.90;;;6.00;99.90;;;;;;4247696;28;20042;-86
2022/11/21 09:42:25;;;;;;;8.88;8.45;;;6.00;99.90;;;;;;4241179;28;20063;-86
2022/11/21 09:44:54;;;;;;;7.75;7.55;;;6.00;99.90;;;;;;4249630;28;20054;-86
2022/11/21 09:47:42;;;;;;;6.63;6.43;;;6.20;99.90;;;;;;4245095;28;20038;-86
2022/11/21 09:50:12;;;;;;;6.05;5.88;;;6.20;99.90;;;;;;4247343;28;20321;-86
2022/11/21 09:52:40;;;;;;;6.90;6.53;;;6.40;99.90;;;;;;4245294;28;20043;-86
2022/11/21 09:55:06;;;;;;;7.63;7.32;;;6.60;99.90;;;;;;4247418;28;20780;-86
2022/11/21 09:57:26;;;;;;;9.60;9.05;;;6.70;99.90;;;;;;4246278;28;20109;-86
2022/11/21 09:59:54;;;;;;;12.73;11.65;;;6.80;99.90;;;;;;4243702;28;20077;-86
2022/11/21 10:02:20;;;;;;;11.30;10.25;;;7.00;99.90;;;;;;4245774;28;20038;-86
2022/11/21 10:04:39;;;;;;;6.05;5.75;;;7.30;99.90;;;;;;4233679;28;20138;-86
2022/11/21 10:07:20;;;;;;;23.70;17.63;;;7.90;99.90;;;;;;4239484;28;20065;-86
2022/11/21 10:09:52;;;;;;;7.70;7.40;;;7.90;99.90;;;;;;4249767;28;20076;-86
2022/11/21 10:12:38;;;;;;;4.75;4.53;;;8.10;99.90;;;;;;4249883;28;20149;-86
2022/11/21 10:15:26;;;;;;;4.88;4.78;;;7.90;99.90;;;;;;4248950;28;20042;-86
2022/11/21 10:17:57;;;;;;;4.72;4.63;;;8.20;99.90;;;;;;4249804;28;20091;-86
2022/11/21 10:20:38;;;;;;;3.58;3.47;;;8.60;99.90;;;;;;4240613;28;20043;-86
2022/11/21 10:23:23;;;;;;;4.53;4.32;;;8.90;99.90;;;;;;4235283;28;20426;-86
2022/11/21 10:26:08;;;;;;;4.25;4.15;;;9.20;99.90;;;;;;4232782;28;20046;-86
2022/11/21 10:28:36;;;;;;;3.63;3.53;;;9.30;99.90;;;;;;4242094;28;20272;-86
2022/11/21 10:30:59;;;;;;;3.15;3.15;;;9.30;99.90;;;;;;4241515;28;20042;-86
2022/11/21 10:33:31;;;;;;;3.42;3.25;;;9.50;99.90;;;;;;4249871;28;20101;-86
2022/11/21 10:35:56;;;;;;;2.70;2.70;;;9.40;99.90;;;;;;4250279;28;20070;-86
2022/11/21 10:38:24;;;;;;;2.60;2.60;;;9.40;99.90;;;;;;4247320;28;20045;-85
2022/11/21 10:40:49;;;;;;;2.88;2.88;;;9.60;99.90;;;;;;4249349;28;20039;-86
2022/11/21 10:46:03;;;;;;;2.65;2.65;;;9.90;99.90;;;;;;4241726;28;20050;-85
2022/11/21 10:48:23;;;;;;;2.58;2.50;;;9.70;99.90;;;;;;4233996;28;20067;-85
2022/11/21 10:51:26;;;;;;;2.25;2.15;;;9.70;99.90;;;;;;4249829;28;20085;-85
2022/11/21 10:56:32;;;;;;;2.72;2.72;;;9.60;99.90;;;;;;4249655;28;20084;-85
2022/11/21 10:58:54;;;;;;;2.42;2.42;;;9.80;99.90;;;;;;4249200;28;20043;-86
2022/11/21 11:01:34;;;;;;;2.90;2.70;;;9.60;99.90;;;;;;4250073;28;20083;-86
2022/11/21 11:04:03;;;;;;;3.20;3.10;;;9.60;99.90;;;;;;4249193;28;20050;-86
2022/11/21 11:06:45;;;;;;;3.42;3.33;;;9.50;99.90;;;;;;4248271;28;20103;-85
2022/11/21 11:09:09;;;;;;;3.63;3.53;;;9.60;99.90;;;;;;4247297;28;20038;-86
2022/11/21 11:11:30;;;;;;;5.05;4.88;;;9.70;99.90;;;;;;4249194;28;20362;-85
2022/11/21 11:14:05;;;;;;;3.28;3.05;;;9.90;99.90;;;;;;4245519;28;20053;-85
2022/11/21 11:16:27;;;;;;;2.78;2.78;;;9.80;99.90;;;;;;4248612;28;20081;-86
2022/11/21 11:19:00;;;;;;;5.47;5.05;;;9.90;99.90;;;;;;4245715;28;20045;-86
2022/11/21 11:21:28;;;;;;;3.35;3.25;;;10.00;99.90;;;;;;4245716;28;20039;-86
2022/11/21 11:23:50;;;;;;;2.90;2.70;;;10.10;99.90;;;;;;4248813;28;20077;-86
2022/11/21 11:26:21;;;;;;;2.92;2.83;;;10.10;99.90;;;;;;4250213;28;20053;-86
2022/11/21 11:28:41;;;;;;;2.80;2.80;;;10.00;99.90;;;;;;4237194;28;20047;-86
2022/11/21 11:31:00;;;;;;;2.97;2.88;;;10.30;99.90;;;;;;4241131;28;20047;-86
2022/11/21 11:33:54;;;;;;;4.18;3.35;;;9.90;99.90;;;;;;4241390;28;20419;-86
2022/11/21 11:36:20;;;;;;;2.45;2.30;;;10.20;99.90;;;;;;4249541;28;20080;-86
2022/11/21 11:38:55;;;;;;;2.80;2.80;;;10.20;99.90;;;;;;4248877;28;20261;-86
2022/11/21 11:47:31;;;;;;;;;;;10.40;99.90;;;;;;4250281;28;20047;-86
2022/11/21 11:50:12;;;;;;;2.90;2.67;;;10.40;99.90;;;;;;4250812;28;19984;-86
2022/11/21 11:52:40;;;;;;;2.08;2.03;;;10.70;99.90;;;;;;4246854;28;20049;-86
2022/11/21 11:55:14;;;;;;;2.35;2.35;;;10.60;99.90;;;;;;4247571;28;20078;-87
2022/11/21 11:57:37;;;;;;;2.20;2.20;;;10.70;99.90;;;;;;4233023;28;20274;-86
2022/11/21 12:00:23;;;;;;;2.10;2.10;;;10.40;99.90;;;;;;4247571;28;20365;-86
2022/11/21 12:03:07;;;;;;;2.10;2.08;;;10.50;99.90;;;;;;4247515;28;20042;-87
2022/11/21 12:05:29;;;;;;;2.33;2.25;;;10.90;99.90;;;;;;4249432;28;20041;-86
2022/11/21 12:08:23;;;;;;;2.07;1.97;;;10.80;99.90;;;;;;4236982;28;20384;-87
2022/11/21 12:13:51;;;;;;;2.20;2.10;;;10.90;99.90;;;;;;4248427;28;20263;-86
2022/11/21 12:16:14;;;;;;;2.40;2.20;;;11.10;99.90;;;;;;4243364;28;20051;-86
2022/11/21 12:19:01;;;;;;;3.20;3.10;;;10.90;99.90;;;;;;4247453;28;20034;-86
2022/11/21 12:21:22;;;;;;;2.10;2.10;;;10.80;99.90;;;;;;4245605;28;20042;-87
2022/11/21 12:23:51;;;;;;;2.35;2.35;;;10.90;99.90;;;;;;4248982;28;20062;-86
2022/11/21 12:26:33;;;;;;;3.33;3.13;;;10.60;99.90;;;;;;4243134;28;20111;-87
2022/11/21 12:29:05;;;;;;;3.20;3.00;;;10.90;99.90;;;;;;4246511;28;20243;-87
2022/11/21 12:31:30;;;;;;;4.32;4.22;;;10.80;99.90;;;;;;4247214;28;20269;-87
2022/11/21 12:34:17;;;;;;;3.55;3.45;;;10.60;99.90;;;;;;4244611;28;20046;-86
2022/11/21 12:36:44;;;;;;;3.78;3.40;;;10.70;99.90;;;;;;4247662;28;20384;-87
2022/11/21 12:39:15;;;;;;;2.50;2.40;;;10.90;99.90;;;;;;4248410;28;20072;-83